Noroton, Connecticut
Current Conditions -  °F | °C
As of 4:56 PM on Saturday 20 Dec 2014 (Local Time) from KHPN Reporting Station
Overcast Overcast  
Wind Chill: 25°   Ceiling: 2500
Heat Index: 30°   Visibility: 10mi
Dew Point: 20°   Wind: 5mph
Humidity: 66%   Direction: 360°N
Pressure: 30.24"   Gusts: NA
Location:  41.0804°N, 73.4823°W
Report Text: KHPN 202156Z 36004KT 10SM OVC025 M01/M07 A3024 RMK AO2 SLP251 T10111067
Loading
Personal Weather Stations






























Interactive Weather Map New forecast layout! Learn more

10-Day Weather Forecast

Advertisements
Track Severe Weather on mobile